Time;durP1;ratioP1;P1;durP2;ratioP2;P2;SDS_P1;SDS_P2;PMS_P1;PMS_P2;Temp;Humidity;BMP_temperature;BMP_pressure;BME280_temperature;BME280_humidity;BME280_pressure;Samples;Min_cycle;Max_cycle;Signal;HPM_P1;HPM_P2
2021/12/10 00:00:42;;;;;;;54.42;29.25;;;;;;;1.66;77.15;94540.59;5025974;28;20044;-79
2021/12/10 00:03:20;;;;;;;66.00;33.58;;;;;;;1.72;76.98;94528.63;5028026;28;20534;-79
2021/12/10 00:05:51;;;;;;;54.65;29.85;;;;;;;1.70;77.49;94520.84;5027038;28;20035;-79
2021/12/10 00:08:17;;;;;;;60.70;30.98;;;;;;;1.69;76.53;94537.69;5027768;28;20053;-79
2021/12/10 00:10:45;;;;;;;89.32;38.67;;;;;;;1.71;76.88;94538.38;5027423;28;20029;-79
2021/12/10 00:13:10;;;;;;;72.28;33.75;;;;;;;1.58;77.77;94527.31;5027076;28;20021;-78
2021/12/10 00:15:39;;;;;;;66.55;34.17;;;;;;;1.62;78.15;94517.25;5027709;28;20033;-79
2021/12/10 00:18:05;;;;;;;68.03;34.70;;;;;;;1.73;77.48;94522.38;5024209;28;20487;-79
2021/12/10 00:20:32;;;;;;;66.53;33.03;;;;;;;1.71;77.49;94525.16;5027923;28;20017;-80
2021/12/10 00:23:03;;;;;;;59.42;29.40;;;;;;;1.75;77.61;94528.34;5026462;28;20446;-81
2021/12/10 00:25:35;;;;;;;58.13;31.05;;;;;;;1.85;77.07;94533.59;5027759;28;20033;-79
2021/12/10 00:28:12;;;;;;;55.97;31.83;;;;;;;1.75;77.46;94533.63;5027377;28;20232;-79
2021/12/10 00:30:44;;;;;;;66.35;34.03;;;;;;;1.76;77.92;94526.53;5026919;28;20026;-80
2021/12/10 00:33:14;;;;;;;56.72;30.38;;;;;;;1.78;78.19;94496.31;5027497;28;20018;-80
2021/12/10 00:35:40;;;;;;;57.50;30.65;;;;;;;1.68;78.93;94495.53;5026334;28;20056;-79
2021/12/10 00:38:06;;;;;;;58.90;31.33;;;;;;;1.69;78.41;94513.88;5010101;28;20138;-80
2021/12/10 00:40:32;;;;;;;60.55;30.98;;;;;;;1.72;78.90;94518.91;5025578;28;20511;-79
2021/12/10 00:42:57;;;;;;;54.40;28.90;;;;;;;1.80;78.90;94514.69;5026229;28;20033;-78
2021/12/10 00:45:23;;;;;;;50.88;28.08;;;;;;;1.81;78.49;94526.91;5027290;28;20116;-80
2021/12/10 00:47:49;;;;;;;52.92;28.80;;;;;;;1.86;78.77;94506.16;5026963;28;20562;-79
2021/12/10 00:50:17;;;;;;;51.95;29.02;;;;;;;1.87;78.99;94507.81;5027245;28;20485;-81
2021/12/10 00:52:42;;;;;;;63.13;30.77;;;;;;;1.93;78.70;94515.19;5026173;28;20029;-78
2021/12/10 00:55:08;;;;;;;54.50;29.80;;;;;;;1.91;78.90;94506.56;5010805;28;20068;-78
2021/12/10 00:57:33;;;;;;;55.80;27.90;;;;;;;1.93;78.90;94501.13;5032352;28;20507;-78
2021/12/10 00:59:59;;;;;;;68.70;31.98;;;;;;;1.98;78.90;94497.06;5036516;28;20032;-79
2021/12/10 01:02:24;;;;;;;62.72;30.27;;;;;;;2.08;78.50;94507.59;5035430;28;20025;-80
2021/12/10 01:04:52;;;;;;;56.15;29.13;;;;;;;2.03;78.51;94499.25;5035195;28;20057;-79
2021/12/10 01:07:25;;;;;;;54.38;29.70;;;;;;;2.01;78.67;94498.59;5031082;28;20056;-80
2021/12/10 01:09:53;;;;;;;53.10;27.70;;;;;;;2.05;78.72;94507.88;5026327;28;20069;-79
2021/12/10 01:12:28;;;;;;;48.92;26.25;;;;;;;2.22;77.82;94508.91;5027173;28;20488;-79
2021/12/10 01:25:54;;;;;;;38.50;21.40;;;;;;;2.06;79.64;94509.53;5027965;28;20103;-79
2021/12/10 01:28:20;;;;;;;35.95;19.48;;;;;;;2.05;79.76;94502.59;5025865;28;20405;-78
2021/12/10 01:30:45;;;;;;;39.30;21.27;;;;;;;2.10;79.89;94492.41;5030719;28;20507;-78
2021/12/10 01:33:16;;;;;;;34.70;21.15;;;;;;;2.09;79.78;94487.28;5030521;28;20549;-78
2021/12/10 01:35:43;;;;;;;37.38;20.38;;;;;;;2.07;79.85;94487.41;5030561;28;20033;-78
2021/12/10 01:38:10;;;;;;;46.55;23.13;;;;;;;2.09;79.88;94474.88;5031198;28;20112;-78
2021/12/10 01:40:36;;;;;;;37.85;21.45;;;;;;;2.10;80.40;94473.06;5029880;28;20466;-79
2021/12/10 01:43:07;;;;;;;35.90;19.67;;;;;;;2.17;79.42;94474.13;5030788;28;20435;-79
2021/12/10 01:45:45;;;;;;;40.83;20.95;;;;;;;2.16;80.00;94483.03;5029403;28;20097;-78
2021/12/10 01:48:12;;;;;;;38.08;20.33;;;;;;;2.18;79.93;94474.94;5030874;28;20833;-80
2021/12/10 01:50:38;;;;;;;40.13;20.25;;;;;;;2.23;80.11;94467.41;5030378;28;20022;-81
2021/12/10 01:53:06;;;;;;;34.97;19.88;;;;;;;2.21;79.62;94458.78;5012464;28;20022;-79
2021/12/10 01:55:32;;;;;;;33.63;18.63;;;;;;;2.24;79.58;94466.44;5028909;28;20033;-79
2021/12/10 01:57:58;;;;;;;34.40;18.90;;;;;;;1.89;80.86;94471.50;5029083;28;20373;-79
2021/12/10 02:00:27;;;;;;;31.27;18.30;;;;;;;1.96;80.50;94463.81;5029418;28;20074;-79
2021/12/10 02:02:53;;;;;;;30.75;18.33;;;;;;;2.06;80.36;94461.94;5011697;28;20029;-79
2021/12/10 02:05:18;;;;;;;32.08;17.58;;;;;;;2.08;80.59;94449.41;5030523;28;20053;-78
2021/12/10 02:07:44;;;;;;;29.95;18.55;;;;;;;2.16;80.54;94447.84;5029028;28;20033;-79
2021/12/10 02:10:10;;;;;;;31.90;17.67;;;;;;;2.20;80.72;94443.91;5030123;28;20033;-79
2021/12/10 02:12:35;;;;;;;30.95;17.92;;;;;;;2.27;80.21;94447.63;5029334;28;20484;-77
2021/12/10 02:15:03;;;;;;;26.33;16.15;;;;;;;2.31;80.07;94451.63;5029627;28;20026;-79
2021/12/10 02:17:36;;;;;;;31.45;17.88;;;;;;;2.25;80.10;94454.88;5030091;28;20644;-79
2021/12/10 02:20:13;;;;;;;32.90;18.10;;;;;;;2.19;80.32;94435.13;5029208;28;20056;-79
2021/12/10 02:22:39;;;;;;;32.70;19.33;;;;;;;2.15;80.69;94423.19;5014071;28;20590;-79
2021/12/10 02:25:05;;;;;;;32.75;18.90;;;;;;;2.22;79.57;94421.59;5029255;28;20029;-80
2021/12/10 02:27:30;;;;;;;37.65;21.10;;;;;;;2.26;79.54;94416.84;5029969;28;20026;-79
2021/12/10 02:29:56;;;;;;;35.58;20.77;;;;;;;2.28;78.95;94417.53;5029396;28;20022;-79
2021/12/10 02:32:23;;;;;;;30.10;18.95;;;;;;;2.25;79.42;94416.97;5029526;28;20029;-79
2021/12/10 02:34:49;;;;;;;37.38;20.00;;;;;;;2.19;79.52;94407.84;5028712;28;20029;-78
2021/12/10 02:37:15;;;;;;;40.50;21.98;;;;;;;2.15;80.16;94396.72;5027616;28;20117;-79
2021/12/10 02:39:40;;;;;;;43.00;22.90;;;;;;;2.22;79.75;94407.53;5030413;28;20104;-80
2021/12/10 02:42:06;;;;;;;47.40;24.08;;;;;;;2.07;80.37;94418.66;5028043;28;20025;-78
2021/12/10 02:44:31;;;;;;;39.13;21.67;;;;;;;2.04;80.72;94426.88;5030015;28;20080;-79
2021/12/10 02:46:57;;;;;;;38.83;21.58;;;;;;;2.04;80.60;94429.53;5029086;28;20029;-79
2021/12/10 02:49:22;;;;;;;46.22;23.38;;;;;;;2.04;80.67;94440.09;5028663;28;20112;-79
2021/12/10 02:51:48;;;;;;;57.72;24.90;;;;;;;2.11;80.72;94458.88;5029528;28;20025;-79
2021/12/10 02:54:20;;;;;;;90.80;33.95;;;;;;;2.14;80.97;94469.16;5028411;28;20025;-80
2021/12/10 02:56:45;;;;;;;94.18;34.97;;;;;;;2.14;80.04;94463.84;5029263;28;20083;-79
2021/12/10 02:59:11;;;;;;;68.72;33.83;;;;;;;2.00;80.97;94448.50;5026634;28;20382;-79
2021/12/10 03:01:40;;;;;;;69.30;31.08;;;;;;;1.97;81.00;94445.16;5030628;28;20091;-80
2021/12/10 03:04:07;;;;;;;67.80;29.42;;;;;;;1.95;81.24;94444.47;5027049;28;20104;-81
2021/12/10 03:06:34;;;;;;;62.25;29.02;;;;;;;1.99;81.92;94447.66;5029929;28;20064;-78
2021/12/10 03:08:59;;;;;;;52.85;27.23;;;;;;;2.03;81.43;94453.47;5028514;28;20022;-80
2021/12/10 03:11:28;;;;;;;48.20;27.17;;;;;;;2.12;80.98;94449.09;4994604;28;20107;-78
2021/12/10 03:13:53;;;;;;;53.70;27.95;;;;;;;2.10;81.18;94436.03;5029068;28;20057;-78
2021/12/10 03:16:19;;;;;;;49.85;27.30;;;;;;;2.11;81.77;94437.69;5029002;28;20478;-78
2021/12/10 03:18:44;;;;;;;62.03;32.28;;;;;;;2.06;82.53;94435.47;5036777;28;20047;-80
2021/12/10 03:21:10;;;;;;;56.85;28.42;;;;;;;2.11;82.47;94427.13;5041042;28;20024;-79
2021/12/10 03:23:42;;;;;;;51.15;26.50;;;;;;;2.20;82.09;94433.31;5041869;28;20098;-79
2021/12/10 03:26:08;;;;;;;48.63;26.42;;;;;;;2.22;82.48;94428.72;5038236;28;20026;-80
2021/12/10 03:28:33;;;;;;;48.15;27.65;;;;;;;2.21;81.75;94432.31;5030530;28;20468;-80
2021/12/10 03:30:59;;;;;;;49.60;27.33;;;;;;;2.34;81.96;94440.72;5027143;28;20029;-79
2021/12/10 03:33:24;;;;;;;50.38;27.17;;;;;;;2.39;82.35;94434.13;5028304;28;20032;-79
2021/12/10 03:35:50;;;;;;;46.20;26.15;;;;;;;2.40;82.15;94422.59;5028965;28;20029;-79
2021/12/10 03:38:18;;;;;;;53.17;32.15;;;;;;;2.45;81.39;94444.16;5027442;28;20029;-79
2021/12/10 03:40:44;;;;;;;54.70;31.67;;;;;;;2.30;82.07;94426.16;5025364;28;20029;-77
2021/12/10 03:43:10;;;;;;;50.75;29.67;;;;;;;2.33;81.88;94428.50;5009469;28;20377;-78
2021/12/10 03:45:39;;;;;;;53.40;31.50;;;;;;;2.39;81.57;94439.44;5012482;28;20452;-79
2021/12/10 03:48:09;;;;;;;62.38;33.70;;;;;;;2.27;82.64;94441.50;5010542;28;20037;-78
2021/12/10 03:50:34;;;;;;;63.25;35.53;;;;;;;2.32;81.65;94440.03;5011877;28;20041;-79
2021/12/10 03:53:00;;;;;;;54.63;31.60;;;;;;;2.28;83.13;94430.75;5010495;28;20033;-78
2021/12/10 03:55:25;;;;;;;53.75;30.52;;;;;;;2.41;82.05;94438.31;5009466;28;20018;-80
2021/12/10 03:57:51;;;;;;;44.03;26.42;;;;;;;2.43;83.09;94449.59;5007990;28;20108;-80
2021/12/10 04:00:18;;;;;;;45.53;24.52;;;;;;;2.54;83.13;94437.09;5005724;28;20049;-80
2021/12/10 04:02:43;;;;;;;44.97;27.05;;;;;;;2.52;83.02;94434.59;5008996;28;20022;-80
2021/12/10 04:05:09;;;;;;;50.97;26.17;;;;;;;2.49;83.29;94449.94;5007024;28;20096;-80
2021/12/10 04:07:34;;;;;;;46.70;27.17;;;;;;;2.56;82.77;94451.84;5008915;28;20025;-79
2021/12/10 04:10:00;;;;;;;46.47;25.55;;;;;;;2.74;82.35;94442.25;5007815;28;20025;-80
2021/12/10 04:12:26;;;;;;;51.35;28.17;;;;;;;2.61;83.22;94442.63;5007760;28;20385;-78
2021/12/10 04:14:51;;;;;;;48.60;27.83;;;;;;;2.65;82.17;94444.81;5007740;28;20507;-80
2021/12/10 04:17:19;;;;;;;49.30;27.95;;;;;;;2.63;82.77;94445.97;5007433;28;20026;-80
2021/12/10 04:19:45;;;;;;;43.08;26.02;;;;;;;2.72;81.46;94455.63;5008341;28;20044;-79
2021/12/10 04:22:11;;;;;;;48.25;26.55;;;;;;;2.72;81.49;94458.28;5005750;28;20034;-79
2021/12/10 04:24:38;;;;;;;46.50;26.15;;;;;;;2.67;81.52;94460.53;5007417;28;20037;-80
2021/12/10 04:27:04;;;;;;;42.53;24.50;;;;;;;2.66;81.36;94472.13;5007340;28;20025;-80
2021/12/10 04:29:30;;;;;;;43.40;23.92;;;;;;;2.75;81.03;94470.38;5008312;28;20127;-78
2021/12/10 04:31:56;;;;;;;43.70;24.20;;;;;;;2.74;80.91;94460.78;5007353;28;20054;-80
2021/12/10 04:34:22;;;;;;;42.85;25.20;;;;;;;2.80;80.79;94461.00;5006784;28;20029;-80
2021/12/10 04:36:48;;;;;;;45.35;24.80;;;;;;;2.71;80.99;94464.53;5010888;28;20033;-80
2021/12/10 04:39:14;;;;;;;41.35;22.50;;;;;;;2.72;80.67;94460.94;5007328;28;20473;-79
2021/12/10 04:41:39;;;;;;;42.15;23.35;;;;;;;2.74;80.96;94474.81;5007046;28;20018;-81
2021/12/10 04:44:05;;;;;;;40.90;23.13;;;;;;;2.79;79.91;94461.97;5006796;28;20037;-79
2021/12/10 04:46:31;;;;;;;44.03;25.50;;;;;;;2.72;80.52;94466.22;5006608;28;20064;-79
2021/12/10 04:49:01;;;;;;;46.50;26.90;;;;;;;2.56;81.36;94466.91;5007254;28;20026;-79
2021/12/10 04:51:29;;;;;;;45.45;25.02;;;;;;;2.49;81.18;94471.97;5005936;28;20040;-79
2021/12/10 04:53:54;;;;;;;50.83;26.83;;;;;;;2.40;82.69;94476.34;5007435;28;20029;-80
2021/12/10 04:56:20;;;;;;;47.60;25.70;;;;;;;2.49;82.39;94465.84;5006221;28;20562;-79
2021/12/10 04:58:46;;;;;;;48.72;27.15;;;;;;;2.44;82.82;94469.78;5006617;28;20033;-79
2021/12/10 05:01:11;;;;;;;50.38;29.10;;;;;;;2.54;82.95;94468.88;5012527;28;20065;-80
2021/12/10 05:03:36;;;;;;;47.70;28.95;;;;;;;2.52;82.68;94474.31;5012901;28;20030;-79
2021/12/10 05:06:03;;;;;;;53.03;28.20;;;;;;;2.57;82.50;94473.84;5015888;28;20045;-80
2021/12/10 05:08:33;;;;;;;52.67;29.35;;;;;;;2.43;82.94;94472.56;5025601;28;20040;-77
2021/12/10 05:10:59;;;;;;;51.83;28.02;;;;;;;2.32;83.87;94469.16;5025285;28;20036;-81
2021/12/10 05:13:24;;;;;;;50.38;27.38;;;;;;;2.33;84.08;94464.69;5018390;28;20432;-80
2021/12/10 05:15:56;;;;;;;52.50;30.65;;;;;;;2.40;84.06;94467.59;5026339;28;20451;-79
2021/12/10 05:18:21;;;;;;;52.63;27.90;;;;;;;2.44;83.76;94466.28;5024096;28;20468;-80
2021/12/10 05:20:48;;;;;;;48.08;29.08;;;;;;;2.51;83.62;94464.72;5024069;28;20030;-80
2021/12/10 05:23:15;;;;;;;44.88;26.80;;;;;;;2.63;83.19;94464.50;5025061;28;20440;-79
2021/12/10 05:25:42;;;;;;;43.70;25.83;;;;;;;2.58;83.61;94460.47;5010802;28;20108;-79
2021/12/10 05:28:07;;;;;;;55.40;30.92;;;;;;;2.59;82.91;94462.16;5028136;28;20552;-80
2021/12/10 05:30:34;;;;;;;51.22;29.40;;;;;;;2.58;83.09;94472.88;5023205;28;20057;-81
2021/12/10 05:33:01;;;;;;;49.67;28.33;;;;;;;2.59;83.74;94480.69;5025110;28;20029;-80
2021/12/10 05:35:27;;;;;;;51.47;28.17;;;;;;;2.68;83.83;94470.16;5023456;28;20034;-81
2021/12/10 05:37:52;;;;;;;56.30;30.48;;;;;;;2.70;83.59;94462.88;5025027;28;20026;-80
2021/12/10 05:40:17;;;;;;;50.17;27.80;;;;;;;2.71;82.71;94453.94;5013447;28;20029;-80
2021/12/10 05:42:44;;;;;;;52.85;28.88;;;;;;;2.69;83.15;94450.66;5021523;28;20034;-82
2021/12/10 05:45:10;;;;;;;46.28;25.95;;;;;;;2.72;84.01;94450.34;5020493;28;20025;-79
2021/12/10 05:47:35;;;;;;;47.53;27.48;;;;;;;2.81;83.46;94453.88;5024506;28;20029;-79
2021/12/10 05:50:01;;;;;;;45.78;25.58;;;;;;;2.85;83.26;94442.00;5021831;28;20021;-82
2021/12/10 05:52:26;;;;;;;48.35;27.70;;;;;;;2.92;83.15;94439.53;4987812;28;20042;-77
2021/12/10 05:54:52;;;;;;;48.92;27.40;;;;;;;2.94;82.31;94446.38;5021264;28;20036;-79
2021/12/10 05:57:18;;;;;;;50.53;28.50;;;;;;;3.09;81.02;94441.31;5019468;28;20026;-79
2021/12/10 05:59:44;;;;;;;62.00;32.67;;;;;;;3.02;81.54;94445.59;5006197;28;20105;-77
2021/12/10 06:02:09;;;;;;;59.40;32.00;;;;;;;3.07;80.70;94435.38;4987925;28;20037;-78
2021/12/10 06:04:35;;;;;;;55.38;32.08;;;;;;;3.02;81.31;94439.44;4994946;28;20034;-78
2021/12/10 06:07:00;;;;;;;59.03;32.88;;;;;;;2.96;81.95;94427.66;5022772;28;20045;-80
2021/12/10 06:09:25;;;;;;;55.75;30.90;;;;;;;2.99;81.59;94440.59;5024156;28;20116;-79
2021/12/10 06:11:51;;;;;;;55.05;30.23;;;;;;;2.95;82.26;94445.38;5026094;28;20483;-79
2021/12/10 06:14:16;;;;;;;44.30;26.85;;;;;;;3.13;81.64;94439.19;5008984;28;20029;-80
2021/12/10 06:16:42;;;;;;;48.78;28.48;;;;;;;3.16;80.99;94443.38;5008454;28;20026;-80
2021/12/10 06:19:07;;;;;;;51.63;28.60;;;;;;;3.06;81.50;94428.38;5028178;28;20026;-81
2021/12/10 06:21:33;;;;;;;47.83;27.33;;;;;;;2.98;82.02;94433.66;5028663;28;20032;-80
2021/12/10 06:23:59;;;;;;;46.28;26.58;;;;;;;2.97;82.14;94437.28;5027322;28;20045;-81
2021/12/10 06:26:25;;;;;;;47.55;27.50;;;;;;;3.01;81.91;94443.09;5029006;28;20034;-80
2021/12/10 06:28:50;;;;;;;50.10;28.98;;;;;;;3.13;81.79;94441.03;5010726;28;20021;-81
2021/12/10 06:31:17;;;;;;;51.00;28.95;;;;;;;3.20;80.89;94460.63;5012511;28;20032;-80
2021/12/10 06:33:42;;;;;;;54.22;32.22;;;;;;;2.86;82.89;94464.00;5029583;28;20068;-80
2021/12/10 06:36:08;;;;;;;62.60;34.25;;;;;;;2.90;82.26;94460.88;5027719;28;20025;-81
2021/12/10 06:38:34;;;;;;;60.25;32.72;;;;;;;2.92;82.41;94450.97;4996043;28;20032;-82
2021/12/10 06:40:59;;;;;;;62.72;36.13;;;;;;;2.93;82.31;94455.31;5027674;28;20037;-82
2021/12/10 06:43:25;;;;;;;60.60;37.10;;;;;;;2.77;83.05;94437.47;5028647;28;20112;-81
2021/12/10 06:45:51;;;;;;;60.17;32.60;;;;;;;2.86;83.26;94461.34;5010853;28;20032;-82
2021/12/10 06:48:17;;;;;;;66.78;38.58;;;;;;;2.78;83.30;94428.53;5030251;28;20049;-83
2021/12/10 07:09:25;;;;;;;63.88;38.90;;;;;;;3.73;80.99;94446.47;5145402;27;20161;-81
2021/12/10 07:11:52;;;;;;;69.22;38.22;;;;;;;3.69;80.32;94467.22;5081344;27;1310586;-82
2021/12/10 07:14:17;;;;;;;75.60;41.08;;;;;;;3.69;80.45;94435.38;5091676;28;20031;-80
2021/12/10 07:16:43;;;;;;;99.45;58.20;;;;;;;3.70;80.64;94439.69;5092392;28;20020;-79
2021/12/10 07:19:09;;;;;;;81.57;48.72;;;;;;;3.64;80.57;94458.88;5126739;28;20048;-81
2021/12/10 07:21:35;;;;;;;76.63;43.50;;;;;;;3.40;80.71;94466.53;5091944;28;20020;-80
2021/12/10 07:24:05;;;;;;;69.80;43.58;;;;;;;3.38;81.13;94465.03;5107972;28;20476;-81
2021/12/10 07:26:31;;;;;;;69.78;41.67;;;;;;;3.40;80.98;94458.56;5108764;28;20023;-80
2021/12/10 07:28:57;;;;;;;64.82;40.35;;;;;;;3.44;80.71;94459.94;5091775;28;20020;-81
2021/12/10 07:31:23;;;;;;;70.75;39.83;;;;;;;3.51;80.23;94464.63;5074537;28;20027;-80
2021/12/10 07:33:48;;;;;;;65.57;39.38;;;;;;;3.56;80.15;94447.22;5127683;28;20100;-80
2021/12/10 07:36:15;;;;;;;114.97;62.85;;;;;;;3.58;78.94;94431.16;5126230;28;20076;-81
2021/12/10 07:38:40;;;;;;;94.35;52.15;;;;;;;3.61;78.78;94454.72;5092081;28;20024;-81
2021/12/10 07:41:07;;;;;;;92.70;52.92;;;;;;;3.50;78.64;94458.47;5125994;28;20015;-80
2021/12/10 07:43:33;;;;;;;97.93;53.17;;;;;;;3.40;78.88;94440.03;5091813;28;20067;-79
2021/12/10 07:45:58;;;;;;;97.55;55.55;;;;;;;3.42;79.37;94450.47;5090912;28;20441;-81
2021/12/10 07:48:24;;;;;;;98.32;55.90;;;;;;;3.29;79.23;94457.03;5091431;28;20039;-81
2021/12/10 07:50:55;;;;;;;88.45;50.20;;;;;;;3.34;79.11;94468.00;5091155;28;20024;-81
2021/12/10 07:53:25;;;;;;;65.80;40.20;;;;;;;3.42;78.44;94467.22;5108252;28;20053;-80
2021/12/10 07:55:51;;;;;;;74.57;41.60;;;;;;;3.26;78.91;94469.75;5108190;28;20023;-82
2021/12/10 07:58:17;;;;;;;72.85;41.45;;;;;;;3.25;79.34;94461.00;5106933;28;20042;-81
2021/12/10 08:00:43;;;;;;;68.22;38.30;;;;;;;3.24;79.02;94456.66;5107477;28;20042;-81
2021/12/10 08:03:08;;;;;;;63.95;36.08;;;;;;;3.32;77.74;94448.75;5089811;28;20050;-81
2021/12/10 08:05:34;;;;;;;69.25;37.55;;;;;;;3.40;76.89;94449.81;5126459;28;20054;-81
2021/12/10 08:08:00;;;;;;;66.47;37.30;;;;;;;3.38;76.82;94451.78;5117376;28;20032;-81
2021/12/10 08:10:25;;;;;;;61.60;34.38;;;;;;;3.25;76.79;94442.44;5090733;28;20102;-81
2021/12/10 08:12:51;;;;;;;64.07;34.95;;;;;;;3.23;76.69;94441.75;5072051;28;20098;-79
2021/12/10 08:15:16;;;;;;;63.70;37.08;;;;;;;3.18;77.51;94449.34;5055702;28;20093;-83
2021/12/10 08:17:42;;;;;;;68.57;37.13;;;;;;;3.03;78.34;94476.38;5069937;28;20062;-82
2021/12/10 08:20:09;;;;;;;63.42;37.45;;;;;;;3.04;78.80;94453.38;5089585;28;20032;-79
2021/12/10 08:22:34;;;;;;;71.50;38.50;;;;;;;3.11;78.34;94457.09;5084089;28;20027;-80
2021/12/10 08:24:59;;;;;;;63.83;37.42;;;;;;;3.12;78.51;94468.50;5062312;28;20032;-82
2021/12/10 08:27:25;;;;;;;66.13;37.65;;;;;;;3.29;78.33;94462.34;5073194;28;20036;-81
2021/12/10 08:29:51;;;;;;;69.55;38.13;;;;;;;3.33;77.51;94452.25;5042376;28;20063;-80
2021/12/10 08:32:20;;;;;;;68.63;37.63;;;;;;;3.37;77.98;94455.44;5055270;28;20047;-81
2021/12/10 08:34:46;;;;;;;72.28;40.15;;;;;;;3.34;77.90;94461.84;5070761;28;20030;-80
2021/12/10 08:37:12;;;;;;;70.18;40.30;;;;;;;3.30;78.59;94464.00;5071966;28;20048;-80
2021/12/10 08:39:37;;;;;;;73.03;41.03;;;;;;;3.32;78.01;94471.81;5050569;28;20516;-79
2021/12/10 08:42:03;;;;;;;70.18;39.67;;;;;;;3.33;78.85;94469.00;5045269;28;20048;-78
2021/12/10 08:44:29;;;;;;;83.55;43.35;;;;;;;3.12;79.58;94456.09;5069187;28;20020;-77
2021/12/10 08:46:54;;;;;;;72.43;41.67;;;;;;;3.42;78.88;94453.97;5040783;28;20036;-78
2021/12/10 08:49:19;;;;;;;76.40;43.22;;;;;;;3.52;79.57;94467.09;5088204;28;20043;-78
2021/12/10 08:51:47;;;;;;;70.32;41.00;;;;;;;3.65;79.38;94471.16;5086128;28;20020;-78
2021/12/10 08:54:14;;;;;;;68.97;41.17;;;;;;;3.78;78.82;94450.34;5084759;28;20039;-78
2021/12/10 08:56:39;;;;;;;70.50;41.70;;;;;;;3.90;78.42;94442.91;5070384;28;20030;-78
2021/12/10 08:59:05;;;;;;;69.40;39.35;;;;;;;4.07;76.41;94453.59;5086550;28;20024;-80
2021/12/10 09:01:34;;;;;;;69.10;39.50;;;;;;;4.20;75.60;94456.63;5035208;28;20119;-78
2021/12/10 09:04:01;;;;;;;62.88;38.67;;;;;;;4.18;76.24;94455.09;5048318;28;20028;-79
2021/12/10 09:06:29;;;;;;;65.47;41.00;;;;;;;4.13;76.04;94470.69;5068680;28;20032;-77
2021/12/10 09:08:56;;;;;;;63.13;37.42;;;;;;;4.16;75.54;94435.88;5042806;28;20114;-79
2021/12/10 09:11:22;;;;;;;66.15;38.38;;;;;;;4.10;76.84;94447.13;5068557;28;20066;-78
2021/12/10 09:13:47;;;;;;;60.35;37.58;;;;;;;4.18;75.73;94463.06;5085714;28;20485;-79
2021/12/10 09:16:20;;;;;;;68.28;41.55;;;;;;;4.04;76.24;94449.44;5050683;28;20111;-80
2021/12/10 09:18:46;;;;;;;70.70;40.83;;;;;;;3.98;77.00;94439.47;5056229;28;20447;-79
2021/12/10 09:21:11;;;;;;;73.60;41.47;;;;;;;4.00;76.85;94442.78;5063992;28;20089;-79
2021/12/10 09:23:37;;;;;;;69.35;41.25;;;;;;;4.04;76.94;94425.56;5090160;28;20031;-79
2021/12/10 09:26:05;;;;;;;74.03;41.63;;;;;;;4.15;76.49;94418.28;5088360;28;20032;-77
2021/12/10 09:28:34;;;;;;;71.80;40.55;;;;;;;4.08;76.29;94432.19;5069455;28;20024;-77
2021/12/10 09:31:00;;;;;;;73.28;41.13;;;;;;;4.14;76.24;94432.53;5069552;28;20020;-78
2021/12/10 09:33:25;;;;;;;77.20;41.70;;;;;;;4.18;75.67;94439.19;5051483;28;20539;-79
2021/12/10 09:35:51;;;;;;;77.60;42.50;;;;;;;4.22;75.22;94429.91;5052899;28;20039;-77
2021/12/10 09:38:19;;;;;;;83.30;45.47;;;;;;;4.23;75.89;94436.88;5087112;28;20507;-78
2021/12/10 09:40:47;;;;;;;77.65;45.30;;;;;;;4.39;75.46;94417.50;5069644;28;20024;-77
2021/12/10 09:43:14;;;;;;;72.32;41.13;;;;;;;4.36;75.06;94398.41;5050408;28;20050;-81
2021/12/10 09:45:42;;;;;;;71.28;41.33;;;;;;;4.43;75.31;94379.00;5087856;28;20030;-78
2021/12/10 09:48:08;;;;;;;65.13;38.20;;;;;;;4.41;74.11;94401.41;5045892;28;20121;-79
2021/12/10 09:50:37;;;;;;;67.18;40.33;;;;;;;4.40;74.34;94389.13;5052725;28;20259;-79
2021/12/10 09:53:03;;;;;;;71.65;41.97;;;;;;;4.42;74.76;94377.34;5067722;28;20373;-79
2021/12/10 09:55:28;;;;;;;71.28;41.65;;;;;;;4.36;75.52;94367.38;5069145;28;20020;-78
2021/12/10 09:57:54;;;;;;;85.03;46.88;;;;;;;4.38;75.53;94373.38;5068708;28;20032;-79
2021/12/10 10:00:30;;;;;;;91.75;47.17;;;;;;;4.35;75.48;94371.03;5068604;28;20024;-78
2021/12/10 10:02:56;;;;;;;93.47;47.38;;;;;;;4.39;75.26;94380.31;5052779;28;20024;-79
2021/12/10 10:05:27;;;;;;;108.45;54.45;;;;;;;4.47;76.04;94382.16;5066299;28;20012;-78
2021/12/10 10:07:55;;;;;;;102.30;52.95;;;;;;;4.63;75.47;94369.88;5064099;28;20040;-78
2021/12/10 10:10:21;;;;;;;99.93;51.58;;;;;;;4.71;76.53;94372.53;5051938;28;20062;-78
2021/12/10 10:12:48;;;;;;;95.97;50.45;;;;;;;4.72;75.25;94357.44;5063575;28;20608;-77
2021/12/10 10:15:17;;;;;;;103.53;51.22;;;;;;;4.81;75.59;94356.41;5086766;28;20489;-77
2021/12/10 10:17:43;;;;;;;97.22;49.35;;;;;;;4.97;74.98;94354.72;5086856;28;20042;-79
2021/12/10 10:20:10;;;;;;;99.50;50.58;;;;;;;5.01;75.11;94346.28;5088485;28;20028;-79
2021/12/10 10:22:35;;;;;;;92.28;48.92;;;;;;;5.12;74.88;94358.38;5085409;28;20036;-78
2021/12/10 10:25:01;;;;;;;92.97;47.92;;;;;;;5.22;75.39;94344.88;5087122;28;20023;-78
2021/12/10 10:27:29;;;;;;;94.03;47.90;;;;;;;5.38;73.85;94359.13;5068074;28;20042;-78
2021/12/10 10:30:16;;;;;;;93.85;46.47;;;;;;;5.34;73.68;94353.31;5051860;28;20032;-78
2021/12/10 10:32:45;;;;;;;84.85;45.67;;;;;;;5.38;74.13;94353.81;5047866;28;20035;-78
2021/12/10 10:35:15;;;;;;;76.00;39.67;;;;;;;5.46;74.11;94356.44;5046741;28;20257;-80
2021/12/10 10:37:41;;;;;;;78.97;41.13;;;;;;;5.47;74.91;94346.63;5048907;28;20040;-77
2021/12/10 10:40:07;;;;;;;69.72;38.20;;;;;;;5.56;74.37;94330.44;5051669;28;20329;-80
2021/12/10 10:42:32;;;;;;;79.20;41.92;;;;;;;5.55;75.38;94327.97;5050531;28;20409;-79
2021/12/10 10:45:02;;;;;;;105.55;49.40;;;;;;;5.54;74.82;94326.31;5076431;28;20020;-77
2021/12/10 10:47:28;;;;;;;82.47;41.55;;;;;;;5.71;75.23;94327.06;5064756;28;20039;-78
2021/12/10 10:49:58;;;;;;;87.53;41.60;;;;;;;5.84;73.87;94325.66;5050308;28;20024;-79
2021/12/10 10:52:33;;;;;;;84.47;41.03;;;;;;;5.83;73.50;94324.84;5050381;28;20107;-77
2021/12/10 10:55:10;;;;;;;93.25;43.50;;;;;;;5.93;73.70;94324.63;5066044;28;20467;-78
2021/12/10 10:57:35;;;;;;;84.40;40.30;;;;;;;5.98;73.41;94321.44;5079492;28;20032;-75
2021/12/10 11:00:43;;;;;;;83.05;40.40;;;;;;;6.00;74.05;94317.59;5086183;28;20032;-78
2021/12/10 11:03:13;;;;;;;83.13;40.55;;;;;;;6.00;74.42;94322.06;5085621;28;20438;-77
2021/12/10 11:05:51;;;;;;;84.10;41.78;;;;;;;6.01;74.26;94315.75;5068275;28;20135;-79
2021/12/10 11:08:31;;;;;;;79.93;40.35;;;;;;;6.13;74.10;94313.53;5064728;28;20043;-78
2021/12/10 11:11:14;;;;;;;74.03;39.15;;;;;;;6.16;74.08;94319.34;5054529;28;20036;-77
2021/12/10 11:13:39;;;;;;;79.65;41.90;;;;;;;6.10;74.54;94308.56;5089142;28;20032;-78
2021/12/10 11:16:10;;;;;;;80.68;41.15;;;;;;;6.18;75.04;94327.16;5050895;28;20039;-77
2021/12/10 11:18:46;;;;;;;70.78;39.83;;;;;;;6.23;74.47;94321.28;5067606;28;20020;-77
2021/12/10 11:21:12;;;;;;;75.18;39.05;;;;;;;6.27;74.93;94325.28;5086424;28;20028;-76
2021/12/10 11:23:39;;;;;;;72.57;38.90;;;;;;;6.29;75.14;94312.59;5066635;28;20024;-76
2021/12/10 11:26:04;;;;;;;66.72;39.53;;;;;;;6.34;74.51;94312.88;5050970;28;20035;-78
2021/12/10 11:28:32;;;;;;;78.38;40.53;;;;;;;6.40;73.89;94319.34;5047987;28;20036;-77
2021/12/10 11:31:14;;;;;;;84.65;44.28;;;;;;;6.25;75.17;94312.13;5085503;28;20054;-78
2021/12/10 11:33:45;;;;;;;79.63;42.85;;;;;;;6.23;75.25;94316.81;5044934;28;20031;-77
2021/12/10 11:36:16;;;;;;;79.75;45.60;;;;;;;6.32;74.80;94308.75;5043740;28;20043;-78
2021/12/10 11:38:44;;;;;;;83.47;44.50;;;;;;;6.41;75.15;94291.69;5083450;28;20104;-79
2021/12/10 11:41:14;;;;;;;72.25;40.75;;;;;;;6.52;74.24;94304.59;5086123;28;20614;-75
2021/12/10 11:44:21;;;;;;;76.30;40.47;;;;;;;6.48;74.49;94297.94;5067629;28;20564;-77
2021/12/10 11:47:13;;;;;;;75.68;39.88;;;;;;;6.51;74.02;94305.59;5088897;28;20033;-77
2021/12/10 11:49:39;;;;;;;72.90;38.17;;;;;;;6.51;73.82;94289.59;5074502;28;20036;-77
2021/12/10 11:52:11;;;;;;;71.85;39.67;;;;;;;6.57;73.63;94287.22;5089269;28;20035;-76
2021/12/10 11:54:37;;;;;;;73.75;41.00;;;;;;;6.64;74.11;94275.66;5068419;28;20446;-79